sensor_id;sensor_type;location;lat;lon;timestamp;pressure;altitude;pressure_sealevel;temperature;humidity
4024;BME280;2026;51.002;13.668;2024-01-07T00:03:23;98863.09;;;-1.64;83.41
4024;BME280;2026;51.002;13.668;2024-01-07T00:08:26;98872.00;;;-1.78;83.59
4024;BME280;2026;51.002;13.668;2024-01-07T00:13:30;98882.22;;;-1.98;82.64
4024;BME280;2026;51.002;13.668;2024-01-07T00:18:33;98880.78;;;-2.02;82.39
4024;BME280;2026;51.002;13.668;2024-01-07T00:23:36;98875.91;;;-1.63;81.05
4024;BME280;2026;51.002;13.668;2024-01-07T00:28:41;98878.13;;;-1.79;81.40
4024;BME280;2026;51.002;13.668;2024-01-07T00:33:44;98884.75;;;-1.87;82.79
4024;BME280;2026;51.002;13.668;2024-01-07T00:38:47;98891.56;;;-1.64;82.62
4024;BME280;2026;51.002;13.668;2024-01-07T00:43:51;98904.97;;;-2.13;83.42
4024;BME280;2026;51.002;13.668;2024-01-07T00:48:55;98899.59;;;-2.21;83.29
4024;BME280;2026;51.002;13.668;2024-01-07T00:53:58;98902.78;;;-2.29;84.27
4024;BME280;2026;51.002;13.668;2024-01-07T00:59:02;98904.69;;;-1.77;83.06
4024;BME280;2026;51.002;13.668;2024-01-07T01:04:05;98908.38;;;-2.12;84.18
4024;BME280;2026;51.002;13.668;2024-01-07T01:09:08;98926.72;;;-2.04;83.31
4024;BME280;2026;51.002;13.668;2024-01-07T01:14:14;98922.84;;;-2.10;84.07
4024;BME280;2026;51.002;13.668;2024-01-07T01:19:17;98933.72;;;-2.27;83.95
4024;BME280;2026;51.002;13.668;2024-01-07T01:24:21;98941.69;;;-2.19;83.53
4024;BME280;2026;51.002;13.668;2024-01-07T01:29:25;98941.75;;;-2.42;82.65
4024;BME280;2026;51.002;13.668;2024-01-07T01:34:28;98942.66;;;-2.20;81.59
4024;BME280;2026;51.002;13.668;2024-01-07T01:39:32;98935.25;;;-2.25;81.25
4024;BME280;2026;51.002;13.668;2024-01-07T01:44:36;98933.44;;;-2.13;81.69
4024;BME280;2026;51.002;13.668;2024-01-07T01:49:40;98947.50;;;-2.27;81.67
4024;BME280;2026;51.002;13.668;2024-01-07T01:54:43;98959.13;;;-2.44;82.27
4024;BME280;2026;51.002;13.668;2024-01-07T01:59:48;98957.50;;;-2.33;82.55
4024;BME280;2026;51.002;13.668;2024-01-07T02:04:51;98965.69;;;-2.17;81.65
4024;BME280;2026;51.002;13.668;2024-01-07T02:09:54;98969.94;;;-2.27;82.78
4024;BME280;2026;51.002;13.668;2024-01-07T02:14:59;98967.88;;;-2.56;83.34
4024;BME280;2026;51.002;13.668;2024-01-07T02:20:02;98970.22;;;-2.42;82.39
4024;BME280;2026;51.002;13.668;2024-01-07T02:25:08;98996.78;;;-2.39;82.17
4024;BME280;2026;51.002;13.668;2024-01-07T02:30:11;98991.16;;;-2.33;82.18
4024;BME280;2026;51.002;13.668;2024-01-07T02:35:14;98990.06;;;-2.31;82.15
4024;BME280;2026;51.002;13.668;2024-01-07T02:40:18;98993.97;;;-2.48;82.34
4024;BME280;2026;51.002;13.668;2024-01-07T02:45:22;99000.06;;;-2.26;80.86
4024;BME280;2026;51.002;13.668;2024-01-07T02:50:25;98999.59;;;-2.65;81.63
4024;BME280;2026;51.002;13.668;2024-01-07T02:55:29;99009.13;;;-2.54;81.00
4024;BME280;2026;51.002;13.668;2024-01-07T03:00:32;99015.47;;;-2.70;80.42
4024;BME280;2026;51.002;13.668;2024-01-07T03:05:35;99019.38;;;-2.53;80.27
4024;BME280;2026;51.002;13.668;2024-01-07T03:10:39;99011.84;;;-2.67;80.74
4024;BME280;2026;51.002;13.668;2024-01-07T03:15:42;99015.13;;;-2.54;80.93
4024;BME280;2026;51.002;13.668;2024-01-07T03:20:45;99020.53;;;-2.68;80.65
4024;BME280;2026;51.002;13.668;2024-01-07T03:25:49;99017.34;;;-2.83;80.92
4024;BME280;2026;51.002;13.668;2024-01-07T03:30:52;99015.59;;;-2.49;80.33
4024;BME280;2026;51.002;13.668;2024-01-07T03:35:55;99023.81;;;-2.44;77.44
4024;BME280;2026;51.002;13.668;2024-01-07T03:41:00;99021.81;;;-2.40;77.03
4024;BME280;2026;51.002;13.668;2024-01-07T03:46:03;99026.78;;;-2.48;76.99
4024;BME280;2026;51.002;13.668;2024-01-07T03:51:06;99033.88;;;-2.97;79.01
4024;BME280;2026;51.002;13.668;2024-01-07T03:56:10;99029.00;;;-2.78;79.12
4024;BME280;2026;51.002;13.668;2024-01-07T04:01:16;99041.94;;;-2.66;77.40
4024;BME280;2026;51.002;13.668;2024-01-07T04:06:19;99042.25;;;-2.82;78.63
4024;BME280;2026;51.002;13.668;2024-01-07T04:11:23;99047.56;;;-2.72;77.58
4024;BME280;2026;51.002;13.668;2024-01-07T04:16:26;99046.16;;;-2.54;77.24
4024;BME280;2026;51.002;13.668;2024-01-07T04:21:29;99057.13;;;-2.28;76.44
4024;BME280;2026;51.002;13.668;2024-01-07T04:26:33;99048.50;;;-2.62;77.52
4024;BME280;2026;51.002;13.668;2024-01-07T04:31:36;99069.22;;;-3.09;77.96
4024;BME280;2026;51.002;13.668;2024-01-07T04:36:39;99069.16;;;-2.96;77.65
4024;BME280;2026;51.002;13.668;2024-01-07T04:41:44;99063.22;;;-2.63;76.99
4024;BME280;2026;51.002;13.668;2024-01-07T04:46:47;99066.78;;;-2.99;78.38
4024;BME280;2026;51.002;13.668;2024-01-07T04:51:50;99072.97;;;-2.66;77.53
4024;BME280;2026;51.002;13.668;2024-01-07T04:56:54;99083.31;;;-2.66;77.56
4024;BME280;2026;51.002;13.668;2024-01-07T05:01:57;99089.94;;;-2.98;78.06
4024;BME280;2026;51.002;13.668;2024-01-07T05:07:00;99078.16;;;-3.02;78.50
4024;BME280;2026;51.002;13.668;2024-01-07T05:12:05;99084.28;;;-3.03;78.73
4024;BME280;2026;51.002;13.668;2024-01-07T05:17:09;99098.69;;;-2.76;77.95
4024;BME280;2026;51.002;13.668;2024-01-07T05:22:12;99104.69;;;-2.75;76.22
4024;BME280;2026;51.002;13.668;2024-01-07T05:27:16;99112.91;;;-3.17;77.31
4024;BME280;2026;51.002;13.668;2024-01-07T05:32:19;99103.81;;;-3.23;77.49
4024;BME280;2026;51.002;13.668;2024-01-07T05:37:22;99118.00;;;-3.04;77.02
4024;BME280;2026;51.002;13.668;2024-01-07T05:42:26;99124.44;;;-2.74;76.46
4024;BME280;2026;51.002;13.668;2024-01-07T05:47:29;99126.25;;;-3.23;76.58
4024;BME280;2026;51.002;13.668;2024-01-07T05:52:32;99124.53;;;-3.11;76.82
4024;BME280;2026;51.002;13.668;2024-01-07T05:57:36;99144.00;;;-2.94;76.49
4024;BME280;2026;51.002;13.668;2024-01-07T06:02:40;99140.72;;;-3.21;76.13
4024;BME280;2026;51.002;13.668;2024-01-07T06:07:43;99152.47;;;-3.17;76.90
4024;BME280;2026;51.002;13.668;2024-01-07T06:12:47;99152.84;;;-3.10;76.79
4024;BME280;2026;51.002;13.668;2024-01-07T06:17:50;99164.81;;;-2.96;76.04
4024;BME280;2026;51.002;13.668;2024-01-07T06:22:53;99164.31;;;-3.25;76.08
4024;BME280;2026;51.002;13.668;2024-01-07T06:27:58;99169.63;;;-3.16;75.82
4024;BME280;2026;51.002;13.668;2024-01-07T06:33:01;99182.75;;;-3.43;76.43
4024;BME280;2026;51.002;13.668;2024-01-07T06:38:04;99195.72;;;-3.56;77.38
4024;BME280;2026;51.002;13.668;2024-01-07T06:43:08;99203.00;;;-3.37;75.69
4024;BME280;2026;51.002;13.668;2024-01-07T06:48:12;99205.81;;;-3.53;76.39
4024;BME280;2026;51.002;13.668;2024-01-07T06:53:14;99214.50;;;-3.17;75.96
4024;BME280;2026;51.002;13.668;2024-01-07T06:58:19;99220.03;;;-3.34;75.29
4024;BME280;2026;51.002;13.668;2024-01-07T07:03:22;99219.00;;;-3.31;75.70
4024;BME280;2026;51.002;13.668;2024-01-07T07:08:25;99242.16;;;-3.43;75.58
4024;BME280;2026;51.002;13.668;2024-01-07T07:13:30;99235.66;;;-3.48;75.85
4024;BME280;2026;51.002;13.668;2024-01-07T07:18:33;99238.63;;;-3.29;74.69
4024;BME280;2026;51.002;13.668;2024-01-07T07:23:36;99247.78;;;-3.62;75.48
4024;BME280;2026;51.002;13.668;2024-01-07T07:28:40;99243.84;;;-3.55;76.06
4024;BME280;2026;51.002;13.668;2024-01-07T07:33:43;99259.22;;;-3.66;74.80
4024;BME280;2026;51.002;13.668;2024-01-07T07:38:47;99258.72;;;-3.71;74.50
4024;BME280;2026;51.002;13.668;2024-01-07T07:43:51;99265.81;;;-3.36;73.67
4024;BME280;2026;51.002;13.668;2024-01-07T07:48:54;99274.84;;;-3.80;73.97
4024;BME280;2026;51.002;13.668;2024-01-07T07:53:57;99287.63;;;-3.66;73.54
4024;BME280;2026;51.002;13.668;2024-01-07T07:59:01;99285.59;;;-3.86;73.25
4024;BME280;2026;51.002;13.668;2024-01-07T08:04:04;99290.22;;;-3.66;72.78
4024;BME280;2026;51.002;13.668;2024-01-07T08:09:07;99297.25;;;-3.81;72.55
4024;BME280;2026;51.002;13.668;2024-01-07T08:14:13;99296.84;;;-3.62;72.36
4024;BME280;2026;51.002;13.668;2024-01-07T08:19:16;99316.34;;;-3.45;71.35
4024;BME280;2026;51.002;13.668;2024-01-07T08:24:19;99319.56;;;-3.67;72.50
4024;BME280;2026;51.002;13.668;2024-01-07T08:29:24;99313.38;;;-3.52;71.30
4024;BME280;2026;51.002;13.668;2024-01-07T08:34:27;99329.34;;;-3.98;72.16
4024;BME280;2026;51.002;13.668;2024-01-07T08:39:30;99339.78;;;-3.86;71.41
4024;BME280;2026;51.002;13.668;2024-01-07T08:44:34;99330.69;;;-3.79;71.12
4024;BME280;2026;51.002;13.668;2024-01-07T08:49:37;99342.03;;;-3.95;71.91
4024;BME280;2026;51.002;13.668;2024-01-07T08:54:41;99331.75;;;-3.82;71.71
4024;BME280;2026;51.002;13.668;2024-01-07T08:59:45;99334.34;;;-3.82;72.11
4024;BME280;2026;51.002;13.668;2024-01-07T09:04:49;99349.16;;;-3.98;71.46
4024;BME280;2026;51.002;13.668;2024-01-07T09:09:52;99348.88;;;-3.81;70.45
4024;BME280;2026;51.002;13.668;2024-01-07T09:14:58;99355.50;;;-3.77;69.67
4024;BME280;2026;51.002;13.668;2024-01-07T09:20:02;99373.34;;;-3.86;69.76
4024;BME280;2026;51.002;13.668;2024-01-07T09:25:07;99373.03;;;-3.95;70.06
4024;BME280;2026;51.002;13.668;2024-01-07T09:30:13;99383.06;;;-3.90;69.73
4024;BME280;2026;51.002;13.668;2024-01-07T09:35:17;99369.84;;;-3.85;69.73
4024;BME280;2026;51.002;13.668;2024-01-07T09:40:20;99382.13;;;-3.76;68.88
4024;BME280;2026;51.002;13.668;2024-01-07T09:45:25;99374.59;;;-3.79;69.54
4024;BME280;2026;51.002;13.668;2024-01-07T09:50:28;99376.22;;;-3.91;69.99
4024;BME280;2026;51.002;13.668;2024-01-07T09:55:33;99375.41;;;-3.92;70.08
4024;BME280;2026;51.002;13.668;2024-01-07T10:00:38;99387.03;;;-4.12;70.60
4024;BME280;2026;51.002;13.668;2024-01-07T10:05:41;99387.88;;;-3.98;69.97
4024;BME280;2026;51.002;13.668;2024-01-07T10:10:45;99387.47;;;-4.05;70.46
4024;BME280;2026;51.002;13.668;2024-01-07T10:15:49;99383.41;;;-4.09;70.67
4024;BME280;2026;51.002;13.668;2024-01-07T10:20:52;99394.56;;;-3.68;69.55
4024;BME280;2026;51.002;13.668;2024-01-07T10:25:56;99394.50;;;-3.94;69.07
4024;BME280;2026;51.002;13.668;2024-01-07T10:31:05;99406.44;;;-4.06;69.21
4024;BME280;2026;51.002;13.668;2024-01-07T10:36:09;99406.03;;;-4.27;69.49
4024;BME280;2026;51.002;13.668;2024-01-07T10:41:13;99407.72;;;-3.86;69.32
4024;BME280;2026;51.002;13.668;2024-01-07T10:46:19;99406.78;;;-3.98;68.53
4024;BME280;2026;51.002;13.668;2024-01-07T10:51:23;99417.41;;;-4.30;68.27
4024;BME280;2026;51.002;13.668;2024-01-07T10:56:39;99415.81;;;-4.32;68.38
4024;BME280;2026;51.002;13.668;2024-01-07T11:01:47;99419.38;;;-4.20;68.07
4024;BME280;2026;51.002;13.668;2024-01-07T11:06:55;99408.44;;;-4.51;68.83
4024;BME280;2026;51.002;13.668;2024-01-07T11:12:00;99420.31;;;-4.21;67.62
4024;BME280;2026;51.002;13.668;2024-01-07T11:17:05;99410.25;;;-4.12;68.18
4024;BME280;2026;51.002;13.668;2024-01-07T11:22:22;99419.00;;;-3.87;65.03
4024;BME280;2026;51.002;13.668;2024-01-07T11:27:31;99424.75;;;-3.96;65.53
4024;BME280;2026;51.002;13.668;2024-01-07T11:32:35;99431.19;;;-4.16;66.66
4024;BME280;2026;51.002;13.668;2024-01-07T11:37:39;99434.28;;;-4.11;64.45
4024;BME280;2026;51.002;13.668;2024-01-07T11:42:42;99439.44;;;-4.38;64.40
4024;BME280;2026;51.002;13.668;2024-01-07T11:47:49;99437.50;;;-4.49;64.35
4024;BME280;2026;51.002;13.668;2024-01-07T11:52:52;99432.00;;;-4.16;62.77
4024;BME280;2026;51.002;13.668;2024-01-07T11:57:55;99449.06;;;-4.28;62.84
4024;BME280;2026;51.002;13.668;2024-01-07T12:03:00;99443.91;;;-4.28;62.86
4024;BME280;2026;51.002;13.668;2024-01-07T12:08:03;99457.31;;;-4.08;62.80
4024;BME280;2026;51.002;13.668;2024-01-07T12:13:07;99467.56;;;-4.63;64.24
4024;BME280;2026;51.002;13.668;2024-01-07T12:18:14;99462.59;;;-4.24;63.70
4024;BME280;2026;51.002;13.668;2024-01-07T12:23:17;99462.09;;;-4.43;65.04
4024;BME280;2026;51.002;13.668;2024-01-07T12:28:20;99456.53;;;-3.96;63.59
4024;BME280;2026;51.002;13.668;2024-01-07T12:33:25;99474.69;;;-4.24;63.65
4024;BME280;2026;51.002;13.668;2024-01-07T12:38:29;99479.56;;;-4.20;64.40
4024;BME280;2026;51.002;13.668;2024-01-07T12:43:32;99478.75;;;-3.93;63.87
4024;BME280;2026;51.002;13.668;2024-01-07T12:48:36;99479.66;;;-4.21;63.15
4024;BME280;2026;51.002;13.668;2024-01-07T12:53:39;99476.03;;;-4.19;63.83
4024;BME280;2026;51.002;13.668;2024-01-07T12:58:42;99493.13;;;-4.31;64.80
4024;BME280;2026;51.002;13.668;2024-01-07T13:03:47;99497.69;;;-4.07;63.82
4024;BME280;2026;51.002;13.668;2024-01-07T13:08:51;99502.09;;;-4.09;63.91
4024;BME280;2026;51.002;13.668;2024-01-07T13:13:53;99494.78;;;-4.15;64.39
4024;BME280;2026;51.002;13.668;2024-01-07T13:19:02;99518.19;;;-4.18;64.65
4024;BME280;2026;51.002;13.668;2024-01-07T13:24:06;99518.19;;;-4.33;65.58
4024;BME280;2026;51.002;13.668;2024-01-07T13:29:08;99518.81;;;-4.29;64.71
4024;BME280;2026;51.002;13.668;2024-01-07T13:34:13;99518.53;;;-4.10;64.65
4024;BME280;2026;51.002;13.668;2024-01-07T13:39:17;99518.97;;;-4.03;63.70
4024;BME280;2026;51.002;13.668;2024-01-07T13:44:20;99513.38;;;-4.10;63.88
4024;BME280;2026;51.002;13.668;2024-01-07T13:49:24;99509.31;;;-4.14;64.53
4024;BME280;2026;51.002;13.668;2024-01-07T13:54:27;99511.19;;;-4.31;65.50
4024;BME280;2026;51.002;13.668;2024-01-07T13:59:30;99522.75;;;-4.09;64.45
4024;BME280;2026;51.002;13.668;2024-01-07T14:04:34;99533.66;;;-3.77;64.23
4024;BME280;2026;51.002;13.668;2024-01-07T14:09:37;99534.72;;;-3.39;63.89
4024;BME280;2026;51.002;13.668;2024-01-07T14:14:40;99531.06;;;-3.77;63.08
4024;BME280;2026;51.002;13.668;2024-01-07T14:19:44;99541.44;;;-4.05;64.31
4024;BME280;2026;51.002;13.668;2024-01-07T14:24:49;99544.09;;;-3.93;64.16
4024;BME280;2026;51.002;13.668;2024-01-07T14:29:52;99553.97;;;-3.85;64.17
4024;BME280;2026;51.002;13.668;2024-01-07T14:34:57;99560.28;;;-4.03;64.06
4024;BME280;2026;51.002;13.668;2024-01-07T14:40:00;99556.38;;;-3.96;63.95
4024;BME280;2026;51.002;13.668;2024-01-07T14:45:06;99566.34;;;-3.90;64.56
4024;BME280;2026;51.002;13.668;2024-01-07T14:50:12;99559.34;;;-4.02;64.93
4024;BME280;2026;51.002;13.668;2024-01-07T14:55:15;99548.75;;;-4.12;65.46
4024;BME280;2026;51.002;13.668;2024-01-07T15:00:19;99561.06;;;-3.88;64.30
4024;BME280;2026;51.002;13.668;2024-01-07T15:05:24;99569.91;;;-3.93;63.94
4024;BME280;2026;51.002;13.668;2024-01-07T15:10:27;99568.66;;;-4.00;63.47
4024;BME280;2026;51.002;13.668;2024-01-07T15:15:30;99566.34;;;-4.04;64.66
4024;BME280;2026;51.002;13.668;2024-01-07T15:20:34;99580.03;;;-3.75;64.16
4024;BME280;2026;51.002;13.668;2024-01-07T15:25:37;99579.44;;;-3.93;65.36
4024;BME280;2026;51.002;13.668;2024-01-07T15:30:40;99589.41;;;-4.01;65.67
4024;BME280;2026;51.002;13.668;2024-01-07T15:35:45;99586.63;;;-4.13;65.76
4024;BME280;2026;51.002;13.668;2024-01-07T15:40:48;99584.91;;;-4.27;66.42
4024;BME280;2026;51.002;13.668;2024-01-07T15:45:51;99575.75;;;-4.03;65.79
4024;BME280;2026;51.002;13.668;2024-01-07T15:50:55;99584.75;;;-3.82;65.84
4024;BME280;2026;51.002;13.668;2024-01-07T15:56:00;99595.56;;;-3.90;64.78
4024;BME280;2026;51.002;13.668;2024-01-07T16:01:04;99603.38;;;-4.05;66.04
4024;BME280;2026;51.002;13.668;2024-01-07T16:06:11;99599.63;;;-4.14;66.90
4024;BME280;2026;51.002;13.668;2024-01-07T16:11:14;99609.28;;;-3.89;66.37
4024;BME280;2026;51.002;13.668;2024-01-07T16:16:19;99607.31;;;-3.71;65.97
4024;BME280;2026;51.002;13.668;2024-01-07T16:21:23;99612.16;;;-3.94;66.26
4024;BME280;2026;51.002;13.668;2024-01-07T16:26:26;99621.63;;;-3.94;66.65
4024;BME280;2026;51.002;13.668;2024-01-07T16:31:29;99620.91;;;-4.11;67.66
4024;BME280;2026;51.002;13.668;2024-01-07T16:36:34;99635.13;;;-4.18;68.70
4024;BME280;2026;51.002;13.668;2024-01-07T16:41:37;99635.75;;;-4.14;68.73
4024;BME280;2026;51.002;13.668;2024-01-07T16:46:39;99631.16;;;-4.09;68.30
4024;BME280;2026;51.002;13.668;2024-01-07T16:51:44;99646.44;;;-4.06;67.58
4024;BME280;2026;51.002;13.668;2024-01-07T16:56:47;99648.94;;;-3.90;65.23
4024;BME280;2026;51.002;13.668;2024-01-07T17:01:50;99636.59;;;-4.28;66.62
4024;BME280;2026;51.002;13.668;2024-01-07T17:06:54;99637.44;;;-3.99;66.30
4024;BME280;2026;51.002;13.668;2024-01-07T17:11:57;99644.44;;;-4.15;66.67
4024;BME280;2026;51.002;13.668;2024-01-07T17:17:00;99648.47;;;-3.97;66.09
4024;BME280;2026;51.002;13.668;2024-01-07T17:22:05;99640.25;;;-4.32;67.14
4024;BME280;2026;51.002;13.668;2024-01-07T17:27:08;99667.81;;;-4.04;66.15
4024;BME280;2026;51.002;13.668;2024-01-07T17:32:11;99655.28;;;-3.96;66.64
4024;BME280;2026;51.002;13.668;2024-01-07T17:37:16;99651.25;;;-4.29;67.23
4024;BME280;2026;51.002;13.668;2024-01-07T17:42:19;99671.06;;;-4.00;68.09
4024;BME280;2026;51.002;13.668;2024-01-07T17:47:23;99665.44;;;-4.21;67.77
4024;BME280;2026;51.002;13.668;2024-01-07T17:52:28;99667.06;;;-4.20;67.45
4024;BME280;2026;51.002;13.668;2024-01-07T17:57:31;99673.34;;;-3.96;67.71
4024;BME280;2026;51.002;13.668;2024-01-07T18:02:35;99671.69;;;-3.82;67.10
4024;BME280;2026;51.002;13.668;2024-01-07T18:07:40;99675.53;;;-3.61;66.30
4024;BME280;2026;51.002;13.668;2024-01-07T18:12:43;99683.78;;;-4.12;68.10
4024;BME280;2026;51.002;13.668;2024-01-07T18:17:46;99687.41;;;-3.85;67.45
4024;BME280;2026;51.002;13.668;2024-01-07T18:22:51;99698.53;;;-4.14;68.47
4024;BME280;2026;51.002;13.668;2024-01-07T18:27:54;99692.66;;;-3.87;68.07
4024;BME280;2026;51.002;13.668;2024-01-07T18:32:57;99699.25;;;-3.97;68.27
4024;BME280;2026;51.002;13.668;2024-01-07T18:38:01;99696.78;;;-3.84;68.13
4024;BME280;2026;51.002;13.668;2024-01-07T18:43:04;99699.56;;;-4.02;68.46
4024;BME280;2026;51.002;13.668;2024-01-07T18:48:07;99695.41;;;-4.04;68.78
4024;BME280;2026;51.002;13.668;2024-01-07T18:53:12;99699.66;;;-4.03;68.84
4024;BME280;2026;51.002;13.668;2024-01-07T18:58:15;99710.41;;;-4.11;69.60
4024;BME280;2026;51.002;13.668;2024-01-07T19:03:18;99710.97;;;-4.06;70.09
4024;BME280;2026;51.002;13.668;2024-01-07T19:08:23;99712.56;;;-4.03;69.77
4024;BME280;2026;51.002;13.668;2024-01-07T19:13:26;99712.63;;;-3.76;68.48
4024;BME280;2026;51.002;13.668;2024-01-07T19:18:29;99717.91;;;-3.92;69.14
4024;BME280;2026;51.002;13.668;2024-01-07T19:23:35;99723.34;;;-3.54;68.35
4024;BME280;2026;51.002;13.668;2024-01-07T19:28:41;99728.22;;;-3.78;69.10
4024;BME280;2026;51.002;13.668;2024-01-07T19:33:44;99723.06;;;-3.78;68.92
4024;BME280;2026;51.002;13.668;2024-01-07T19:38:48;99728.59;;;-3.98;70.22
4024;BME280;2026;51.002;13.668;2024-01-07T19:43:53;99734.59;;;-3.83;68.24
4024;BME280;2026;51.002;13.668;2024-01-07T19:48:59;99734.38;;;-4.09;67.91
4024;BME280;2026;51.002;13.668;2024-01-07T19:54:05;99742.13;;;-4.09;68.41
4024;BME280;2026;51.002;13.668;2024-01-07T19:59:08;99737.06;;;-3.96;67.91
4024;BME280;2026;51.002;13.668;2024-01-07T20:04:11;99739.28;;;-4.04;68.58
4024;BME280;2026;51.002;13.668;2024-01-07T20:09:15;99741.22;;;-4.08;69.39
4024;BME280;2026;51.002;13.668;2024-01-07T20:14:18;99752.81;;;-4.15;69.32
4024;BME280;2026;51.002;13.668;2024-01-07T20:19:21;99761.06;;;-4.24;69.32
4024;BME280;2026;51.002;13.668;2024-01-07T20:24:26;99768.00;;;-4.11;68.90
4024;BME280;2026;51.002;13.668;2024-01-07T20:29:29;99761.06;;;-4.24;69.21
4024;BME280;2026;51.002;13.668;2024-01-07T20:34:35;99768.91;;;-3.81;67.99
4024;BME280;2026;51.002;13.668;2024-01-07T20:39:40;99764.31;;;-4.21;68.62
4024;BME280;2026;51.002;13.668;2024-01-07T20:44:43;99772.25;;;-4.10;67.10
4024;BME280;2026;51.002;13.668;2024-01-07T20:49:46;99771.72;;;-4.45;67.70
4024;BME280;2026;51.002;13.668;2024-01-07T20:54:50;99776.38;;;-4.21;66.67
4024;BME280;2026;51.002;13.668;2024-01-07T20:59:53;99772.59;;;-4.16;66.75
4024;BME280;2026;51.002;13.668;2024-01-07T21:04:56;99784.78;;;-4.48;67.31
4024;BME280;2026;51.002;13.668;2024-01-07T21:10:01;99790.81;;;-4.33;67.41
4024;BME280;2026;51.002;13.668;2024-01-07T21:15:05;99778.56;;;-4.76;69.30
4024;BME280;2026;51.002;13.668;2024-01-07T21:20:09;99779.47;;;-4.61;69.72
4024;BME280;2026;51.002;13.668;2024-01-07T21:25:14;99784.47;;;-4.74;69.63
4024;BME280;2026;51.002;13.668;2024-01-07T21:30:18;99786.22;;;-4.90;69.84
4024;BME280;2026;51.002;13.668;2024-01-07T21:35:21;99789.72;;;-4.91;70.66
4024;BME280;2026;51.002;13.668;2024-01-07T21:40:25;99791.31;;;-4.73;70.55
4024;BME280;2026;51.002;13.668;2024-01-07T21:45:29;99787.03;;;-4.74;71.50
4024;BME280;2026;51.002;13.668;2024-01-07T21:50:32;99788.16;;;-4.78;71.17
4024;BME280;2026;51.002;13.668;2024-01-07T21:55:37;99797.97;;;-4.85;71.11
4024;BME280;2026;51.002;13.668;2024-01-07T22:00:42;99795.72;;;-4.91;71.23
4024;BME280;2026;51.002;13.668;2024-01-07T22:05:45;99811.50;;;-5.13;70.81
4024;BME280;2026;51.002;13.668;2024-01-07T22:10:49;99814.16;;;-4.98;70.47
4024;BME280;2026;51.002;13.668;2024-01-07T22:15:52;99819.31;;;-5.14;68.47
4024;BME280;2026;51.002;13.668;2024-01-07T22:20:55;99829.44;;;-5.27;68.67
4024;BME280;2026;51.002;13.668;2024-01-07T22:25:59;99830.47;;;-4.98;68.29
4024;BME280;2026;51.002;13.668;2024-01-07T22:31:02;99824.38;;;-4.65;66.67
4024;BME280;2026;51.002;13.668;2024-01-07T22:36:06;99828.31;;;-4.58;66.21
4024;BME280;2026;51.002;13.668;2024-01-07T22:41:10;99823.22;;;-4.75;66.63
4024;BME280;2026;51.002;13.668;2024-01-07T22:46:14;99824.81;;;-4.89;67.48
4024;BME280;2026;51.002;13.668;2024-01-07T22:51:17;99838.25;;;-5.15;68.24
4024;BME280;2026;51.002;13.668;2024-01-07T22:56:22;99841.75;;;-5.01;67.11
4024;BME280;2026;51.002;13.668;2024-01-07T23:01:26;99832.97;;;-4.65;66.98
4024;BME280;2026;51.002;13.668;2024-01-07T23:06:29;99844.03;;;-4.94;67.70
4024;BME280;2026;51.002;13.668;2024-01-07T23:11:35;99844.94;;;-4.79;67.25
4024;BME280;2026;51.002;13.668;2024-01-07T23:16:38;99842.75;;;-5.03;67.94
4024;BME280;2026;51.002;13.668;2024-01-07T23:21:41;99844.75;;;-4.92;68.03
4024;BME280;2026;51.002;13.668;2024-01-07T23:26:46;99844.84;;;-4.94;67.41
4024;BME280;2026;51.002;13.668;2024-01-07T23:31:49;99850.50;;;-4.71;66.23
4024;BME280;2026;51.002;13.668;2024-01-07T23:36:53;99858.66;;;-4.79;66.65
4024;BME280;2026;51.002;13.668;2024-01-07T23:41:58;99848.75;;;-4.87;66.78
4024;BME280;2026;51.002;13.668;2024-01-07T23:47:01;99846.00;;;-4.84;67.45
4024;BME280;2026;51.002;13.668;2024-01-07T23:52:04;99848.03;;;-4.73;67.30
4024;BME280;2026;51.002;13.668;2024-01-07T23:57:09;99847.84;;;-4.86;67.43
